NKS556 KACY-KMYR
Flight info
| Callsign | NKS556 |
|---|---|
| Flight time | 1h 10m |
| Altitude | 34000 |
| Route | LEEAH ATR TRPOD Q409 CRPLR PAACK WYLMS |
| Aircraft | A320/M-SDE3FGHIRWY/LB1 |
Departure
| Time | 2026-05-07 00:54 |
|---|---|
| Airport | Atlantic City International Airport (KACY) |
Arrival
| Time | 2026-05-07 02:04 |
|---|---|
| Airport | Myrtle Beach International Airport (KMYR) |
| Time | Latitude | Longitude | Altitude | Speed | Heading |
|---|---|---|---|---|---|
| 2026-05-06 23:45 | 39.45114 | -74.57399 | 79 ft | 0 kts | 157° |
| 2026-05-07 00:36 | 39.45117 | -74.57400 | 73 ft | 0 kts | 157° |
| 2026-05-07 00:36 | 39.45121 | -74.57403 | 78 ft | 0 kts | 157° |
| 2026-05-07 00:36 | 39.45125 | -74.57405 | 78 ft | 1 kts | 157° |
| 2026-05-07 00:37 | 39.45130 | -74.57407 | 78 ft | 1 kts | 157° |
| 2026-05-07 00:37 | 39.45134 | -74.57410 | 69 ft | 1 kts | 157° |
| 2026-05-07 00:37 | 39.45137 | -74.57412 | 78 ft | 1 kts | 157° |
| 2026-05-07 00:37 | 39.45143 | -74.57414 | 78 ft | 1 kts | 125° |
| 2026-05-07 00:38 | 39.45147 | -74.57421 | 78 ft | 1 kts | 93° |
| 2026-05-07 00:38 | 39.45148 | -74.57429 | 78 ft | 0 kts | 62° |
| 2026-05-07 00:38 | 39.45146 | -74.57436 | 78 ft | 1 kts | 35° |
| 2026-05-07 00:38 | 39.45145 | -74.57437 | 78 ft | 0 kts | 35° |
| 2026-05-07 00:42 | 39.45146 | -74.57436 | 78 ft | 0 kts | 35° |
| 2026-05-07 00:44 | 39.45147 | -74.57435 | 78 ft | 3 kts | 35° |
| 2026-05-07 00:44 | 39.45184 | -74.57384 | 71 ft | 0 kts | 51° |
| 2026-05-07 00:45 | 39.45185 | -74.57383 | 78 ft | 0 kts | 50° |
| 2026-05-07 00:45 | 39.45237 | -74.57317 | 73 ft | 25 kts | 45° |
| 2026-05-07 00:45 | 39.45335 | -74.57166 | 76 ft | 14 kts | 38° |
| 2026-05-07 00:46 | 39.45390 | -74.57114 | 71 ft | 0 kts | 50° |
| 2026-05-07 00:47 | 39.45406 | -74.57083 | 77 ft | 15 kts | 62° |
| 2026-05-07 00:47 | 39.45375 | -74.56924 | 73 ft | 21 kts | 118° |
| 2026-05-07 00:48 | 39.45309 | -74.56762 | 72 ft | 19 kts | 118° |
| 2026-05-07 00:48 | 39.45252 | -74.56630 | 67 ft | 16 kts | 118° |
| 2026-05-07 00:48 | 39.45203 | -74.56510 | 73 ft | 16 kts | 117° |
| 2026-05-07 00:48 | 39.45150 | -74.56380 | 76 ft | 18 kts | 118° |
| 2026-05-07 00:49 | 39.45089 | -74.56226 | 69 ft | 15 kts | 118° |
| 2026-05-07 00:49 | 39.45054 | -74.56143 | 74 ft | 10 kts | 118° |
| 2026-05-07 00:49 | 39.45048 | -74.56122 | 78 ft | 0 kts | 104° |
| 2026-05-07 00:49 | 39.45048 | -74.56120 | 78 ft | 1 kts | 101° |
| 2026-05-07 00:50 | 39.45065 | -74.56069 | 78 ft | 0 kts | 44° |
| 2026-05-07 00:52 | 39.45066 | -74.56067 | 78 ft | 0 kts | 43° |
| 2026-05-07 00:53 | 39.45125 | -74.56028 | 74 ft | 15 kts | 4° |
| 2026-05-07 00:53 | 39.45214 | -74.56162 | 72 ft | 37 kts | 298° |
| 2026-05-07 00:53 | 39.45444 | -74.56729 | 69 ft | 103 kts | 297° |
| 2026-05-07 00:53 | 39.45865 | -74.57753 | 74 ft | 152 kts | 299° |
| 2026-05-07 00:54 | 39.46435 | -74.59079 | 476 ft | 175 kts | 297° |
| 2026-05-07 00:54 | 39.47037 | -74.60445 | 1420 ft | 173 kts | 295° |
| 2026-05-07 00:54 | 39.47603 | -74.61788 | 2087 ft | 175 kts | 292° |
| 2026-05-07 00:54 | 39.48201 | -74.63265 | 2358 ft | 197 kts | 291° |
| 2026-05-07 00:55 | 39.48880 | -74.64953 | 2700 ft | 222 kts | 292° |
| 2026-05-07 00:55 | 39.49625 | -74.66787 | 3176 ft | 241 kts | 293° |
| 2026-05-07 00:55 | 39.50429 | -74.68744 | 3792 ft | 250 kts | 294° |
| 2026-05-07 00:55 | 39.51247 | -74.70724 | 3952 ft | 249 kts | 294° |
| 2026-05-07 00:56 | 39.52064 | -74.72700 | 4001 ft | 248 kts | 294° |
| 2026-05-07 00:56 | 39.52878 | -74.74668 | 4004 ft | 248 kts | 294° |
| 2026-05-07 00:56 | 39.53691 | -74.76631 | 4004 ft | 247 kts | 294° |
| 2026-05-07 00:56 | 39.54503 | -74.78594 | 4004 ft | 247 kts | 294° |
| 2026-05-07 00:57 | 39.55318 | -74.80563 | 4138 ft | 251 kts | 295° |
| 2026-05-07 00:57 | 39.56104 | -74.82574 | 5086 ft | 249 kts | 287° |
| 2026-05-07 00:57 | 39.56354 | -74.84761 | 6003 ft | 247 kts | 265° |
| 2026-05-07 00:57 | 39.55844 | -74.86883 | 6864 ft | 251 kts | 241° |
| 2026-05-07 00:58 | 39.54626 | -74.88516 | 7696 ft | 260 kts | 217° |
| 2026-05-07 00:58 | 39.52888 | -74.89317 | 8541 ft | 272 kts | 197° |
| 2026-05-07 00:58 | 39.51025 | -74.89737 | 9421 ft | 272 kts | 197° |
| 2026-05-07 00:58 | 39.49156 | -74.90143 | 10221 ft | 274 kts | 197° |
| 2026-05-07 00:59 | 39.45102 | -74.91067 | 10611 ft | 318 kts | 197° |
| 2026-05-07 00:59 | 39.42869 | -74.91575 | 11026 ft | 330 kts | 196° |
| 2026-05-07 00:59 | 39.40593 | -74.92081 | 11623 ft | 335 kts | 196° |
| 2026-05-07 01:00 | 39.38280 | -74.92590 | 12236 ft | 339 kts | 196° |
| 2026-05-07 01:00 | 39.35946 | -74.93105 | 12861 ft | 343 kts | 196° |
| 2026-05-07 01:00 | 39.33585 | -74.93630 | 13496 ft | 346 kts | 196° |
| 2026-05-07 01:00 | 39.31197 | -74.94166 | 14080 ft | 350 kts | 196° |
| 2026-05-07 01:01 | 39.28785 | -74.94708 | 14618 ft | 354 kts | 197° |
| 2026-05-07 01:01 | 39.26396 | -74.95326 | 15098 ft | 354 kts | 202° |
| 2026-05-07 01:01 | 39.24075 | -74.96458 | 15566 ft | 353 kts | 210° |
| 2026-05-07 01:01 | 39.21851 | -74.97746 | 16078 ft | 356 kts | 211° |
| 2026-05-07 01:02 | 39.19577 | -74.99059 | 16608 ft | 360 kts | 211° |
| 2026-05-07 01:02 | 39.17282 | -75.00381 | 17145 ft | 363 kts | 211° |
| 2026-05-07 01:02 | 39.14933 | -75.01730 | 17678 ft | 367 kts | 211° |
| 2026-05-07 01:02 | 39.12623 | -75.03054 | 18216 ft | 370 kts | 212° |
| 2026-05-07 01:03 | 39.10259 | -75.04409 | 18695 ft | 373 kts | 212° |
| 2026-05-07 01:03 | 39.07884 | -75.05773 | 19211 ft | 375 kts | 212° |
| 2026-05-07 01:03 | 39.05497 | -75.07143 | 19745 ft | 376 kts | 212° |
| 2026-05-07 01:03 | 39.03103 | -75.08516 | 20272 ft | 378 kts | 212° |
| 2026-05-07 01:04 | 39.00698 | -75.09895 | 20770 ft | 379 kts | 213° |
| 2026-05-07 01:04 | 38.98283 | -75.11277 | 21281 ft | 381 kts | 213° |
| 2026-05-07 01:04 | 38.95861 | -75.12661 | 21768 ft | 382 kts | 213° |
| 2026-05-07 01:04 | 38.93427 | -75.14050 | 22241 ft | 384 kts | 213° |
| 2026-05-07 01:05 | 38.90980 | -75.15446 | 22708 ft | 385 kts | 213° |
| 2026-05-07 01:05 | 38.89358 | -75.16371 | 23016 ft | 386 kts | 213° |
| 2026-05-07 01:05 | 38.86062 | -75.18244 | 23607 ft | 388 kts | 214° |
| 2026-05-07 01:05 | 38.83583 | -75.19654 | 23908 ft | 391 kts | 213° |
| 2026-05-07 01:06 | 38.81085 | -75.21081 | 24224 ft | 394 kts | 214° |
| 2026-05-07 01:06 | 38.78618 | -75.22602 | 24572 ft | 393 kts | 216° |
| 2026-05-07 01:06 | 38.76200 | -75.24231 | 24933 ft | 393 kts | 218° |
| 2026-05-07 01:06 | 38.73810 | -75.25920 | 25295 ft | 393 kts | 218° |
| 2026-05-07 01:07 | 38.71417 | -75.27634 | 25654 ft | 394 kts | 218° |
| 2026-05-07 01:07 | 38.69015 | -75.29346 | 26021 ft | 396 kts | 218° |
| 2026-05-07 01:07 | 38.66597 | -75.31048 | 26370 ft | 398 kts | 218° |
| 2026-05-07 01:07 | 38.64158 | -75.32741 | 26716 ft | 400 kts | 217° |
| 2026-05-07 01:08 | 38.61692 | -75.34435 | 27024 ft | 403 kts | 217° |
| 2026-05-07 01:08 | 38.59209 | -75.36130 | 27354 ft | 406 kts | 217° |
| 2026-05-07 01:08 | 38.56718 | -75.37827 | 27700 ft | 407 kts | 217° |
| 2026-05-07 01:08 | 38.54212 | -75.39535 | 28048 ft | 409 kts | 217° |
| 2026-05-07 01:09 | 38.51703 | -75.41247 | 28416 ft | 410 kts | 217° |
| 2026-05-07 01:09 | 38.49193 | -75.42957 | 28942 ft | 407 kts | 217° |
| 2026-05-07 01:09 | 38.46704 | -75.44648 | 29576 ft | 402 kts | 217° |
| 2026-05-07 01:09 | 38.44273 | -75.46298 | 30151 ft | 398 kts | 218° |
| 2026-05-07 01:10 | 38.41810 | -75.47976 | 30497 ft | 398 kts | 217° |
| 2026-05-07 01:10 | 38.39360 | -75.49649 | 30810 ft | 399 kts | 217° |
| 2026-05-07 01:10 | 38.36913 | -75.51319 | 31178 ft | 399 kts | 217° |
| 2026-05-07 01:10 | 38.34474 | -75.52989 | 31592 ft | 397 kts | 219° |
| 2026-05-07 01:11 | 38.32183 | -75.54871 | 31987 ft | 389 kts | 224° |
| 2026-05-07 01:11 | 38.29985 | -75.56795 | 32414 ft | 387 kts | 224° |
| 2026-05-07 01:11 | 38.27739 | -75.58758 | 32859 ft | 386 kts | 225° |
| 2026-05-07 01:11 | 38.25531 | -75.60680 | 33316 ft | 384 kts | 225° |
| 2026-05-07 01:12 | 38.23362 | -75.62566 | 33731 ft | 382 kts | 225° |
| 2026-05-07 01:12 | 38.21163 | -75.64478 | 33882 ft | 384 kts | 225° |
| 2026-05-07 01:12 | 38.18943 | -75.66412 | 33912 ft | 390 kts | 225° |
| 2026-05-07 01:13 | 38.14450 | -75.70324 | 33913 ft | 393 kts | 225° |
| 2026-05-07 01:13 | 38.09935 | -75.74242 | 33913 ft | 393 kts | 225° |
| 2026-05-07 01:14 | 38.05410 | -75.78153 | 33917 ft | 393 kts | 225° |
| 2026-05-07 01:14 | 38.00899 | -75.82042 | 33882 ft | 390 kts | 225° |
| 2026-05-07 01:15 | 37.96410 | -75.85933 | 33895 ft | 392 kts | 225° |
| 2026-05-07 01:15 | 37.91905 | -75.89827 | 33897 ft | 393 kts | 225° |
| 2026-05-07 01:16 | 37.87380 | -75.93725 | 33910 ft | 394 kts | 225° |
| 2026-05-07 01:16 | 37.82876 | -75.97596 | 33900 ft | 394 kts | 225° |
| 2026-05-07 01:17 | 37.78299 | -76.01526 | 33886 ft | 397 kts | 225° |
| 2026-05-07 01:17 | 37.73717 | -76.05455 | 33900 ft | 398 kts | 225° |
| 2026-05-07 01:18 | 37.69156 | -76.09347 | 33906 ft | 399 kts | 225° |
| 2026-05-07 01:18 | 37.64564 | -76.13264 | 33916 ft | 399 kts | 225° |
| 2026-05-07 01:19 | 37.59911 | -76.17105 | 33949 ft | 406 kts | 220° |
| 2026-05-07 01:19 | 37.54924 | -76.20439 | 33952 ft | 405 kts | 220° |
| 2026-05-07 01:20 | 37.49943 | -76.23746 | 33944 ft | 404 kts | 220° |
| 2026-05-07 01:20 | 37.44968 | -76.27046 | 33943 ft | 404 kts | 220° |
| 2026-05-07 01:21 | 37.39999 | -76.30339 | 33941 ft | 403 kts | 220° |
| 2026-05-07 01:21 | 37.35031 | -76.33629 | 33905 ft | 404 kts | 220° |
| 2026-05-07 01:22 | 37.30055 | -76.36927 | 33899 ft | 405 kts | 220° |
| 2026-05-07 01:22 | 37.25070 | -76.40225 | 33924 ft | 405 kts | 220° |
| 2026-05-07 01:23 | 37.20072 | -76.43530 | 33931 ft | 406 kts | 220° |
| 2026-05-07 01:23 | 37.15072 | -76.46830 | 33901 ft | 406 kts | 220° |
| 2026-05-07 01:24 | 37.10053 | -76.50130 | 33908 ft | 408 kts | 219° |
| 2026-05-07 01:24 | 37.05015 | -76.53428 | 33953 ft | 408 kts | 220° |
| 2026-05-07 01:25 | 36.99991 | -76.56713 | 33947 ft | 407 kts | 220° |
| 2026-05-07 01:25 | 36.94974 | -76.59996 | 33908 ft | 407 kts | 220° |
| 2026-05-07 01:26 | 36.89958 | -76.63285 | 33929 ft | 407 kts | 220° |
| 2026-05-07 01:26 | 36.84928 | -76.66573 | 33941 ft | 408 kts | 220° |
| 2026-05-07 01:27 | 36.79889 | -76.69856 | 33946 ft | 409 kts | 220° |
| 2026-05-07 01:27 | 36.74843 | -76.73133 | 33953 ft | 409 kts | 220° |
| 2026-05-07 01:28 | 36.70607 | -76.75879 | 33930 ft | 409 kts | 219° |
| 2026-05-07 01:28 | 36.65551 | -76.79160 | 33937 ft | 410 kts | 219° |
| 2026-05-07 01:29 | 36.60491 | -76.82445 | 33935 ft | 410 kts | 219° |
| 2026-05-07 01:29 | 36.55457 | -76.85703 | 33921 ft | 411 kts | 219° |
| 2026-05-07 01:30 | 36.50393 | -76.88978 | 33914 ft | 410 kts | 219° |
| 2026-05-07 01:30 | 36.45329 | -76.92250 | 33924 ft | 410 kts | 219° |
| 2026-05-07 01:31 | 36.40253 | -76.95520 | 33936 ft | 411 kts | 219° |
| 2026-05-07 01:31 | 36.35176 | -76.98777 | 33951 ft | 411 kts | 219° |
| 2026-05-07 01:32 | 36.30096 | -77.02034 | 33950 ft | 411 kts | 219° |
| 2026-05-07 01:32 | 36.25016 | -77.05296 | 33924 ft | 411 kts | 219° |
| 2026-05-07 01:33 | 36.19926 | -77.08561 | 33933 ft | 412 kts | 219° |
| 2026-05-07 01:33 | 36.14821 | -77.11827 | 33940 ft | 413 kts | 219° |
| 2026-05-07 01:34 | 36.09712 | -77.15081 | 33941 ft | 413 kts | 219° |
| 2026-05-07 01:34 | 36.04616 | -77.18332 | 33930 ft | 413 kts | 218° |
| 2026-05-07 01:35 | 35.99498 | -77.21593 | 33944 ft | 415 kts | 218° |
| 2026-05-07 01:35 | 35.94367 | -77.24868 | 33959 ft | 416 kts | 218° |
| 2026-05-07 01:36 | 35.89155 | -77.28003 | 33979 ft | 418 kts | 216° |
| 2026-05-07 01:36 | 35.83864 | -77.30991 | 33975 ft | 418 kts | 216° |
| 2026-05-07 01:36 | 35.81203 | -77.32470 | 33717 ft | 419 kts | 215° |
| 2026-05-07 01:37 | 35.78544 | -77.33957 | 33469 ft | 421 kts | 215° |
| 2026-05-07 01:37 | 35.75876 | -77.35463 | 33207 ft | 422 kts | 215° |
| 2026-05-07 01:37 | 35.73208 | -77.36981 | 32944 ft | 423 kts | 214° |
| 2026-05-07 01:37 | 35.70525 | -77.38508 | 32688 ft | 425 kts | 214° |
| 2026-05-07 01:38 | 35.67843 | -77.40032 | 32442 ft | 426 kts | 214° |
| 2026-05-07 01:38 | 35.65145 | -77.41559 | 32184 ft | 427 kts | 214° |
| 2026-05-07 01:38 | 35.62435 | -77.43091 | 31927 ft | 429 kts | 213° |
| 2026-05-07 01:38 | 35.59726 | -77.44624 | 31692 ft | 430 kts | 213° |
| 2026-05-07 01:39 | 35.57001 | -77.46166 | 31429 ft | 433 kts | 212° |
| 2026-05-07 01:39 | 35.54248 | -77.47721 | 31192 ft | 437 kts | 212° |
| 2026-05-07 01:39 | 35.51477 | -77.49282 | 30954 ft | 439 kts | 212° |
| 2026-05-07 01:39 | 35.48698 | -77.50843 | 30738 ft | 440 kts | 211° |
| 2026-05-07 01:40 | 35.45906 | -77.52412 | 30501 ft | 441 kts | 211° |
| 2026-05-07 01:40 | 35.43114 | -77.53982 | 30272 ft | 442 kts | 211° |
| 2026-05-07 01:40 | 35.40314 | -77.55554 | 30037 ft | 443 kts | 211° |
| 2026-05-07 01:40 | 35.37508 | -77.57130 | 29767 ft | 444 kts | 211° |
| 2026-05-07 01:41 | 35.34733 | -77.58688 | 29499 ft | 445 kts | 210° |
| 2026-05-07 01:41 | 35.31920 | -77.60263 | 29233 ft | 443 kts | 210° |
| 2026-05-07 01:41 | 35.29124 | -77.61823 | 28966 ft | 440 kts | 210° |
| 2026-05-07 01:41 | 35.26349 | -77.63372 | 28699 ft | 438 kts | 210° |
| 2026-05-07 01:42 | 35.23576 | -77.64922 | 28434 ft | 436 kts | 210° |
| 2026-05-07 01:42 | 35.20822 | -77.66461 | 28185 ft | 435 kts | 210° |
| 2026-05-07 01:42 | 35.18074 | -77.67996 | 27971 ft | 434 kts | 211° |
| 2026-05-07 01:42 | 35.15329 | -77.69531 | 27988 ft | 434 kts | 211° |
| 2026-05-07 01:43 | 35.12589 | -77.71064 | 27984 ft | 434 kts | 211° |
| 2026-05-07 01:43 | 35.07081 | -77.74144 | 28000 ft | 436 kts | 210° |
| 2026-05-07 01:44 | 35.01553 | -77.77219 | 28003 ft | 437 kts | 210° |
| 2026-05-07 01:44 | 34.96017 | -77.80287 | 28004 ft | 437 kts | 210° |
| 2026-05-07 01:44 | 34.93251 | -77.81821 | 27997 ft | 437 kts | 210° |
| 2026-05-07 01:45 | 34.90485 | -77.83354 | 27998 ft | 437 kts | 210° |
| 2026-05-07 01:45 | 34.87719 | -77.84886 | 27983 ft | 437 kts | 210° |
| 2026-05-07 01:45 | 34.84946 | -77.86424 | 28012 ft | 438 kts | 210° |
| 2026-05-07 01:46 | 34.79395 | -77.89501 | 28017 ft | 439 kts | 210° |
| 2026-05-07 01:46 | 34.76620 | -77.91034 | 27974 ft | 437 kts | 210° |
| 2026-05-07 01:46 | 34.73868 | -77.92547 | 27385 ft | 432 kts | 210° |
| 2026-05-07 01:46 | 34.71136 | -77.94047 | 26742 ft | 429 kts | 210° |
| 2026-05-07 01:47 | 34.68422 | -77.95537 | 26111 ft | 426 kts | 210° |
| 2026-05-07 01:47 | 34.65734 | -77.97017 | 25526 ft | 422 kts | 211° |
| 2026-05-07 01:47 | 34.63069 | -77.98485 | 24927 ft | 419 kts | 211° |
| 2026-05-07 01:47 | 34.60424 | -77.99941 | 24331 ft | 417 kts | 211° |
| 2026-05-07 01:48 | 34.57789 | -78.01390 | 23753 ft | 414 kts | 211° |
| 2026-05-07 01:48 | 34.55177 | -78.02825 | 23187 ft | 411 kts | 211° |
| 2026-05-07 01:48 | 34.52572 | -78.04257 | 22981 ft | 412 kts | 211° |
| 2026-05-07 01:48 | 34.49962 | -78.05694 | 23014 ft | 413 kts | 211° |
| 2026-05-07 01:49 | 34.47347 | -78.07132 | 23008 ft | 413 kts | 211° |
| 2026-05-07 01:49 | 34.44726 | -78.08571 | 23010 ft | 413 kts | 211° |
| 2026-05-07 01:49 | 34.42104 | -78.10008 | 23014 ft | 413 kts | 211° |
| 2026-05-07 01:49 | 34.39486 | -78.11440 | 23000 ft | 414 kts | 210° |
| 2026-05-07 01:50 | 34.36856 | -78.12876 | 23011 ft | 415 kts | 210° |
| 2026-05-07 01:50 | 34.34220 | -78.14312 | 23014 ft | 415 kts | 210° |
| 2026-05-07 01:50 | 34.31583 | -78.15746 | 23014 ft | 415 kts | 210° |
| 2026-05-07 01:50 | 34.28950 | -78.17178 | 23014 ft | 415 kts | 210° |
| 2026-05-07 01:51 | 34.26313 | -78.18615 | 23015 ft | 415 kts | 210° |
| 2026-05-07 01:51 | 34.23690 | -78.20042 | 22761 ft | 412 kts | 210° |
| 2026-05-07 01:51 | 34.21088 | -78.21456 | 22134 ft | 408 kts | 210° |
| 2026-05-07 01:51 | 34.18507 | -78.22858 | 21540 ft | 405 kts | 210° |
| 2026-05-07 01:52 | 34.15948 | -78.24247 | 20974 ft | 402 kts | 210° |
| 2026-05-07 01:52 | 34.13406 | -78.25626 | 20412 ft | 400 kts | 210° |
| 2026-05-07 01:52 | 34.10879 | -78.26997 | 19894 ft | 397 kts | 210° |
| 2026-05-07 01:52 | 34.08375 | -78.28358 | 19395 ft | 393 kts | 210° |
| 2026-05-07 01:53 | 34.05919 | -78.29697 | 18899 ft | 390 kts | 210° |
| 2026-05-07 01:53 | 34.03425 | -78.31054 | 18407 ft | 387 kts | 210° |
| 2026-05-07 01:53 | 34.00984 | -78.32384 | 17847 ft | 384 kts | 210° |
| 2026-05-07 01:53 | 33.98593 | -78.33693 | 17308 ft | 380 kts | 210° |
| 2026-05-07 01:54 | 33.96197 | -78.35014 | 16771 ft | 377 kts | 210° |
| 2026-05-07 01:54 | 33.93874 | -78.36403 | 16234 ft | 368 kts | 218° |
| 2026-05-07 01:54 | 33.92045 | -78.38437 | 15704 ft | 352 kts | 238° |
| 2026-05-07 01:54 | 33.91003 | -78.41031 | 15165 ft | 342 kts | 258° |
| 2026-05-07 01:55 | 33.90766 | -78.43847 | 14599 ft | 338 kts | 270° |
| 2026-05-07 01:55 | 33.90757 | -78.46679 | 14020 ft | 338 kts | 270° |
| 2026-05-07 01:55 | 33.90771 | -78.49497 | 13418 ft | 336 kts | 270° |
| 2026-05-07 01:55 | 33.90792 | -78.52305 | 12837 ft | 334 kts | 271° |
| 2026-05-07 01:56 | 33.90815 | -78.55092 | 12309 ft | 331 kts | 271° |
| 2026-05-07 01:56 | 33.90837 | -78.57802 | 12173 ft | 316 kts | 271° |
| 2026-05-07 01:56 | 33.90860 | -78.60340 | 12017 ft | 293 kts | 271° |
| 2026-05-07 01:56 | 33.90883 | -78.62734 | 11655 ft | 279 kts | 271° |
| 2026-05-07 01:57 | 33.90908 | -78.65034 | 11270 ft | 273 kts | 271° |
| 2026-05-07 01:57 | 33.90934 | -78.67307 | 10819 ft | 270 kts | 271° |
| 2026-05-07 01:57 | 33.90961 | -78.69558 | 10356 ft | 268 kts | 271° |
| 2026-05-07 01:57 | 33.90990 | -78.71789 | 9887 ft | 266 kts | 271° |
| 2026-05-07 01:58 | 33.91022 | -78.74012 | 9382 ft | 264 kts | 271° |
| 2026-05-07 01:58 | 33.91057 | -78.76220 | 8869 ft | 263 kts | 271° |
| 2026-05-07 01:58 | 33.91082 | -78.77706 | 8532 ft | 263 kts | 271° |
| 2026-05-07 01:58 | 33.91133 | -78.80614 | 7892 ft | 261 kts | 271° |
| 2026-05-07 01:59 | 33.91169 | -78.82794 | 7381 ft | 261 kts | 271° |
| 2026-05-07 01:59 | 33.91208 | -78.84966 | 6839 ft | 258 kts | 271° |
| 2026-05-07 01:59 | 33.91248 | -78.87120 | 6293 ft | 257 kts | 271° |
| 2026-05-07 01:59 | 33.91286 | -78.89258 | 5722 ft | 255 kts | 270° |
| 2026-05-07 02:00 | 33.90981 | -78.91327 | 5160 ft | 253 kts | 245° |
| 2026-05-07 02:00 | 33.89870 | -78.92948 | 4599 ft | 256 kts | 217° |
| 2026-05-07 02:00 | 33.88247 | -78.93842 | 4032 ft | 258 kts | 202° |
| 2026-05-07 02:00 | 33.86547 | -78.94507 | 3469 ft | 256 kts | 200° |
| 2026-05-07 02:01 | 33.84856 | -78.95162 | 2916 ft | 254 kts | 201° |
| 2026-05-07 02:01 | 33.83206 | -78.95808 | 2495 ft | 245 kts | 201° |
| 2026-05-07 02:01 | 33.81583 | -78.96159 | 2337 ft | 232 kts | 182° |
| 2026-05-07 02:01 | 33.80027 | -78.95852 | 2114 ft | 221 kts | 174° |
| 2026-05-07 02:02 | 33.78565 | -78.95479 | 1847 ft | 209 kts | 174° |
| 2026-05-07 02:02 | 33.77183 | -78.95131 | 1590 ft | 198 kts | 174° |
| 2026-05-07 02:02 | 33.75872 | -78.94803 | 1359 ft | 185 kts | 174° |
| 2026-05-07 02:02 | 33.74685 | -78.94504 | 1140 ft | 164 kts | 174° |
| 2026-05-07 02:03 | 33.73634 | -78.94240 | 941 ft | 144 kts | 174° |
| 2026-05-07 02:03 | 33.72689 | -78.94006 | 750 ft | 137 kts | 172° |
| 2026-05-07 02:03 | 33.71767 | -78.93778 | 579 ft | 134 kts | 172° |
| 2026-05-07 02:03 | 33.70857 | -78.93552 | 396 ft | 133 kts | 170° |
| 2026-05-07 02:04 | 33.69956 | -78.93318 | 203 ft | 130 kts | 171° |
| 2026-05-07 02:04 | 33.69074 | -78.93100 | 52 ft | 129 kts | 171° |
| 2026-05-07 02:04 | 33.68414 | -78.92940 | 31 ft | 49 kts | 168° |
| 2026-05-07 02:04 | 33.68130 | -78.92871 | 31 ft | 38 kts | 167° |
| 2026-05-07 02:05 | 33.67884 | -78.92808 | 32 ft | 34 kts | 167° |
| 2026-05-07 02:05 | 33.67666 | -78.92740 | 32 ft | 31 kts | 155° |
| 2026-05-07 02:05 | 33.67510 | -78.92607 | 32 ft | 18 kts | 137° |